sensor_id;sensor_type;location;lat;lon;timestamp;P1;durP1;ratioP1;P2;durP2;ratioP2
18338;SDS011;9295;44.484;11.240;2023-04-15T00:01:14;9.90;;;2.60;;
18338;SDS011;9295;44.484;11.240;2023-04-15T00:03:46;10.00;;;2.80;;
18338;SDS011;9295;44.484;11.240;2023-04-15T00:06:18;11.87;;;3.20;;
18338;SDS011;9295;44.484;11.240;2023-04-15T00:08:47;9.43;;;2.23;;
18338;SDS011;9295;44.484;11.240;2023-04-15T00:11:16;14.37;;;3.17;;
18338;SDS011;9295;44.484;11.240;2023-04-15T00:13:45;20.70;;;3.27;;
18338;SDS011;9295;44.484;11.240;2023-04-15T00:16:13;7.93;;;2.70;;
18338;SDS011;9295;44.484;11.240;2023-04-15T00:18:42;11.20;;;2.70;;
18338;SDS011;9295;44.484;11.240;2023-04-15T00:21:12;7.90;;;2.50;;
18338;SDS011;9295;44.484;11.240;2023-04-15T00:23:40;8.53;;;2.87;;
18338;SDS011;9295;44.484;11.240;2023-04-15T00:26:09;11.90;;;3.00;;
18338;SDS011;9295;44.484;11.240;2023-04-15T00:28:39;6.33;;;2.87;;
18338;SDS011;9295;44.484;11.240;2023-04-15T00:31:07;9.87;;;2.77;;
18338;SDS011;9295;44.484;11.240;2023-04-15T00:33:36;5.83;;;2.10;;
18338;SDS011;9295;44.484;11.240;2023-04-15T00:36:05;8.07;;;2.37;;
18338;SDS011;9295;44.484;11.240;2023-04-15T00:38:36;9.43;;;2.90;;
18338;SDS011;9295;44.484;11.240;2023-04-15T00:41:05;14.27;;;2.80;;
18338;SDS011;9295;44.484;11.240;2023-04-15T00:43:34;12.47;;;2.90;;
18338;SDS011;9295;44.484;11.240;2023-04-15T00:46:03;12.10;;;2.70;;
18338;SDS011;9295;44.484;11.240;2023-04-15T00:48:32;10.23;;;3.23;;
18338;SDS011;9295;44.484;11.240;2023-04-15T00:51:01;11.03;;;2.90;;
18338;SDS011;9295;44.484;11.240;2023-04-15T00:53:30;7.80;;;2.60;;
18338;SDS011;9295;44.484;11.240;2023-04-15T00:55:59;13.73;;;2.87;;
18338;SDS011;9295;44.484;11.240;2023-04-15T00:58:28;12.67;;;3.40;;
18338;SDS011;9295;44.484;11.240;2023-04-15T01:00:56;12.10;;;3.37;;
18338;SDS011;9295;44.484;11.240;2023-04-15T01:03:28;8.47;;;3.07;;
18338;SDS011;9295;44.484;11.240;2023-04-15T01:05:57;6.77;;;2.27;;
18338;SDS011;9295;44.484;11.240;2023-04-15T01:08:29;12.40;;;3.00;;
18338;SDS011;9295;44.484;11.240;2023-04-15T01:11:00;13.33;;;3.07;;
18338;SDS011;9295;44.484;11.240;2023-04-15T01:13:29;14.47;;;2.60;;
18338;SDS011;9295;44.484;11.240;2023-04-15T01:15:57;15.97;;;3.73;;
18338;SDS011;9295;44.484;11.240;2023-04-15T01:18:27;9.83;;;3.40;;
18338;SDS011;9295;44.484;11.240;2023-04-15T01:20:55;13.23;;;3.20;;
18338;SDS011;9295;44.484;11.240;2023-04-15T01:23:24;12.13;;;3.70;;
18338;SDS011;9295;44.484;11.240;2023-04-15T01:25:54;10.60;;;2.90;;
18338;SDS011;9295;44.484;11.240;2023-04-15T01:28:24;15.00;;;3.70;;
18338;SDS011;9295;44.484;11.240;2023-04-15T01:31:03;11.00;;;3.10;;
18338;SDS011;9295;44.484;11.240;2023-04-15T01:33:36;10.70;;;3.53;;
18338;SDS011;9295;44.484;11.240;2023-04-15T01:36:24;9.80;;;3.33;;
18338;SDS011;9295;44.484;11.240;2023-04-15T01:38:52;14.37;;;3.20;;
18338;SDS011;9295;44.484;11.240;2023-04-15T01:41:25;20.13;;;3.63;;
18338;SDS011;9295;44.484;11.240;2023-04-15T01:43:55;12.53;;;3.27;;
18338;SDS011;9295;44.484;11.240;2023-04-15T01:46:24;7.67;;;2.50;;
18338;SDS011;9295;44.484;11.240;2023-04-15T01:48:54;16.63;;;3.10;;
18338;SDS011;9295;44.484;11.240;2023-04-15T01:51:25;12.10;;;3.10;;
18338;SDS011;9295;44.484;11.240;2023-04-15T01:53:55;18.30;;;4.90;;
18338;SDS011;9295;44.484;11.240;2023-04-15T01:56:26;11.87;;;3.53;;
18338;SDS011;9295;44.484;11.240;2023-04-15T01:58:56;9.50;;;2.80;;
18338;SDS011;9295;44.484;11.240;2023-04-15T02:01:27;10.63;;;2.90;;
18338;SDS011;9295;44.484;11.240;2023-04-15T02:03:59;13.60;;;2.93;;
18338;SDS011;9295;44.484;11.240;2023-04-15T02:06:31;12.87;;;2.80;;
18338;SDS011;9295;44.484;11.240;2023-04-15T02:09:00;9.57;;;2.63;;
18338;SDS011;9295;44.484;11.240;2023-04-15T02:11:32;15.67;;;3.80;;
18338;SDS011;9295;44.484;11.240;2023-04-15T02:14:04;8.17;;;2.90;;
18338;SDS011;9295;44.484;11.240;2023-04-15T02:16:33;19.60;;;3.40;;
18338;SDS011;9295;44.484;11.240;2023-04-15T02:19:03;20.70;;;3.73;;
18338;SDS011;9295;44.484;11.240;2023-04-15T02:21:32;6.57;;;2.63;;
18338;SDS011;9295;44.484;11.240;2023-04-15T02:24:03;15.73;;;4.00;;
18338;SDS011;9295;44.484;11.240;2023-04-15T02:26:34;13.70;;;3.50;;
18338;SDS011;9295;44.484;11.240;2023-04-15T02:29:04;10.57;;;2.87;;
18338;SDS011;9295;44.484;11.240;2023-04-15T02:31:33;13.80;;;2.63;;
18338;SDS011;9295;44.484;11.240;2023-04-15T02:34:07;16.80;;;3.43;;
18338;SDS011;9295;44.484;11.240;2023-04-15T02:36:37;7.50;;;1.97;;
18338;SDS011;9295;44.484;11.240;2023-04-15T02:39:07;7.20;;;3.10;;
18338;SDS011;9295;44.484;11.240;2023-04-15T02:41:39;5.70;;;2.80;;
18338;SDS011;9295;44.484;11.240;2023-04-15T02:44:11;8.37;;;2.17;;
18338;SDS011;9295;44.484;11.240;2023-04-15T02:46:41;10.70;;;2.80;;
18338;SDS011;9295;44.484;11.240;2023-04-15T02:49:11;12.57;;;2.80;;
18338;SDS011;9295;44.484;11.240;2023-04-15T02:51:41;6.87;;;2.30;;
18338;SDS011;9295;44.484;11.240;2023-04-15T02:54:10;12.40;;;2.67;;
18338;SDS011;9295;44.484;11.240;2023-04-15T02:56:41;10.20;;;2.20;;
18338;SDS011;9295;44.484;11.240;2023-04-15T02:59:11;5.63;;;2.30;;
18338;SDS011;9295;44.484;11.240;2023-04-15T03:01:41;9.93;;;2.90;;
18338;SDS011;9295;44.484;11.240;2023-04-15T03:04:11;8.63;;;2.70;;
18338;SDS011;9295;44.484;11.240;2023-04-15T03:06:41;6.97;;;2.17;;
18338;SDS011;9295;44.484;11.240;2023-04-15T03:09:11;8.87;;;2.00;;
18338;SDS011;9295;44.484;11.240;2023-04-15T03:11:42;6.00;;;2.10;;
18338;SDS011;9295;44.484;11.240;2023-04-15T03:14:11;3.73;;;2.00;;
18338;SDS011;9295;44.484;11.240;2023-04-15T03:16:44;3.87;;;1.70;;
18338;SDS011;9295;44.484;11.240;2023-04-15T03:19:16;3.40;;;1.90;;
18338;SDS011;9295;44.484;11.240;2023-04-15T03:21:46;3.83;;;1.90;;
18338;SDS011;9295;44.484;11.240;2023-04-15T03:24:16;2.70;;;1.70;;
18338;SDS011;9295;44.484;11.240;2023-04-15T03:26:47;4.40;;;1.80;;
18338;SDS011;9295;44.484;11.240;2023-04-15T03:29:17;5.83;;;2.20;;
18338;SDS011;9295;44.484;11.240;2023-04-15T03:31:47;5.23;;;1.93;;
18338;SDS011;9295;44.484;11.240;2023-04-15T03:34:17;3.13;;;1.70;;
18338;SDS011;9295;44.484;11.240;2023-04-15T03:36:47;4.97;;;2.20;;
18338;SDS011;9295;44.484;11.240;2023-04-15T03:39:16;2.40;;;1.80;;
18338;SDS011;9295;44.484;11.240;2023-04-15T03:41:47;3.80;;;1.93;;
18338;SDS011;9295;44.484;11.240;2023-04-15T03:44:17;5.03;;;1.87;;
18338;SDS011;9295;44.484;11.240;2023-04-15T03:46:46;5.43;;;1.90;;
18338;SDS011;9295;44.484;11.240;2023-04-15T03:49:16;3.70;;;1.87;;
18338;SDS011;9295;44.484;11.240;2023-04-15T03:51:49;3.50;;;1.63;;
18338;SDS011;9295;44.484;11.240;2023-04-15T03:54:22;5.43;;;1.90;;
18338;SDS011;9295;44.484;11.240;2023-04-15T03:56:53;3.40;;;1.60;;
18338;SDS011;9295;44.484;11.240;2023-04-15T03:59:23;3.23;;;1.70;;
18338;SDS011;9295;44.484;11.240;2023-04-15T04:01:53;4.47;;;1.93;;
18338;SDS011;9295;44.484;11.240;2023-04-15T04:04:23;3.73;;;1.50;;
18338;SDS011;9295;44.484;11.240;2023-04-15T04:06:52;10.17;;;2.10;;
18338;SDS011;9295;44.484;11.240;2023-04-15T04:09:22;3.67;;;1.63;;
18338;SDS011;9295;44.484;11.240;2023-04-15T04:11:53;4.43;;;1.50;;
18338;SDS011;9295;44.484;11.240;2023-04-15T04:14:23;3.80;;;1.70;;
18338;SDS011;9295;44.484;11.240;2023-04-15T04:16:56;4.20;;;1.77;;
18338;SDS011;9295;44.484;11.240;2023-04-15T04:19:26;3.17;;;1.63;;
18338;SDS011;9295;44.484;11.240;2023-04-15T04:21:56;4.67;;;1.80;;
18338;SDS011;9295;44.484;11.240;2023-04-15T04:24:26;4.47;;;1.77;;
18338;SDS011;9295;44.484;11.240;2023-04-15T04:26:57;5.27;;;1.90;;
18338;SDS011;9295;44.484;11.240;2023-04-15T04:29:26;4.23;;;1.87;;
18338;SDS011;9295;44.484;11.240;2023-04-15T04:31:56;3.20;;;1.77;;
18338;SDS011;9295;44.484;11.240;2023-04-15T04:34:26;2.63;;;1.60;;
18338;SDS011;9295;44.484;11.240;2023-04-15T04:36:55;4.50;;;1.87;;
18338;SDS011;9295;44.484;11.240;2023-04-15T04:39:25;4.20;;;1.80;;
18338;SDS011;9295;44.484;11.240;2023-04-15T04:41:54;8.20;;;1.70;;
18338;SDS011;9295;44.484;11.240;2023-04-15T04:44:25;6.70;;;1.67;;
18338;SDS011;9295;44.484;11.240;2023-04-15T04:46:55;2.80;;;1.50;;
18338;SDS011;9295;44.484;11.240;2023-04-15T04:49:24;4.07;;;1.87;;
18338;SDS011;9295;44.484;11.240;2023-04-15T04:51:54;5.30;;;2.43;;
18338;SDS011;9295;44.484;11.240;2023-04-15T04:54:23;10.63;;;1.80;;
18338;SDS011;9295;44.484;11.240;2023-04-15T04:56:54;2.70;;;1.70;;
18338;SDS011;9295;44.484;11.240;2023-04-15T04:59:25;3.10;;;1.90;;
18338;SDS011;9295;44.484;11.240;2023-04-15T05:01:55;3.73;;;1.60;;
18338;SDS011;9295;44.484;11.240;2023-04-15T05:04:25;3.27;;;1.77;;
18338;SDS011;9295;44.484;11.240;2023-04-15T05:06:54;4.63;;;1.90;;
18338;SDS011;9295;44.484;11.240;2023-04-15T05:09:24;5.20;;;2.40;;
18338;SDS011;9295;44.484;11.240;2023-04-15T05:11:53;5.70;;;2.13;;
18338;SDS011;9295;44.484;11.240;2023-04-15T05:14:23;3.07;;;1.50;;
18338;SDS011;9295;44.484;11.240;2023-04-15T05:16:54;4.10;;;1.70;;
18338;SDS011;9295;44.484;11.240;2023-04-15T05:19:23;3.80;;;1.80;;
18338;SDS011;9295;44.484;11.240;2023-04-15T05:21:53;3.03;;;1.70;;
18338;SDS011;9295;44.484;11.240;2023-04-15T05:24:22;3.40;;;1.73;;
18338;SDS011;9295;44.484;11.240;2023-04-15T05:26:52;8.90;;;2.20;;
18338;SDS011;9295;44.484;11.240;2023-04-15T05:29:23;3.90;;;1.83;;
18338;SDS011;9295;44.484;11.240;2023-04-15T05:31:54;3.00;;;1.60;;
18338;SDS011;9295;44.484;11.240;2023-04-15T05:34:23;3.57;;;2.10;;
18338;SDS011;9295;44.484;11.240;2023-04-15T05:36:53;4.10;;;1.70;;
18338;SDS011;9295;44.484;11.240;2023-04-15T05:39:23;6.53;;;1.97;;
18338;SDS011;9295;44.484;11.240;2023-04-15T05:41:52;6.87;;;1.80;;
18338;SDS011;9295;44.484;11.240;2023-04-15T05:44:22;4.67;;;1.80;;
18338;SDS011;9295;44.484;11.240;2023-04-15T05:46:53;3.57;;;1.87;;
18338;SDS011;9295;44.484;11.240;2023-04-15T05:49:23;4.37;;;1.70;;
18338;SDS011;9295;44.484;11.240;2023-04-15T05:51:53;4.80;;;1.97;;
18338;SDS011;9295;44.484;11.240;2023-04-15T05:54:23;4.60;;;1.87;;
18338;SDS011;9295;44.484;11.240;2023-04-15T05:56:54;3.67;;;1.43;;
18338;SDS011;9295;44.484;11.240;2023-04-15T05:59:24;3.73;;;1.40;;
18338;SDS011;9295;44.484;11.240;2023-04-15T06:01:56;3.30;;;1.50;;
18338;SDS011;9295;44.484;11.240;2023-04-15T06:04:26;4.23;;;1.63;;
18338;SDS011;9295;44.484;11.240;2023-04-15T06:06:56;3.70;;;1.50;;
18338;SDS011;9295;44.484;11.240;2023-04-15T06:09:26;5.23;;;1.70;;
18338;SDS011;9295;44.484;11.240;2023-04-15T06:11:57;6.03;;;1.70;;
18338;SDS011;9295;44.484;11.240;2023-04-15T06:14:28;8.30;;;2.03;;
18338;SDS011;9295;44.484;11.240;2023-04-15T06:16:59;9.07;;;1.80;;
18338;SDS011;9295;44.484;11.240;2023-04-15T06:19:29;4.50;;;1.90;;
18338;SDS011;9295;44.484;11.240;2023-04-15T06:21:58;8.00;;;1.90;;
18338;SDS011;9295;44.484;11.240;2023-04-15T06:24:28;4.10;;;1.40;;
18338;SDS011;9295;44.484;11.240;2023-04-15T06:26:59;5.53;;;1.47;;
18338;SDS011;9295;44.484;11.240;2023-04-15T06:29:30;6.60;;;1.70;;
18338;SDS011;9295;44.484;11.240;2023-04-15T06:32:01;4.33;;;1.30;;
18338;SDS011;9295;44.484;11.240;2023-04-15T06:34:31;5.10;;;1.40;;
18338;SDS011;9295;44.484;11.240;2023-04-15T06:37:01;8.67;;;1.40;;
18338;SDS011;9295;44.484;11.240;2023-04-15T06:39:33;3.40;;;1.33;;
18338;SDS011;9295;44.484;11.240;2023-04-15T06:42:02;3.80;;;1.40;;
18338;SDS011;9295;44.484;11.240;2023-04-15T06:44:32;8.50;;;1.40;;
18338;SDS011;9295;44.484;11.240;2023-04-15T06:47:03;4.47;;;1.60;;
18338;SDS011;9295;44.484;11.240;2023-04-15T06:49:32;2.30;;;1.20;;
18338;SDS011;9295;44.484;11.240;2023-04-15T06:52:02;3.33;;;1.40;;
18338;SDS011;9295;44.484;11.240;2023-04-15T06:54:32;4.60;;;1.30;;
18338;SDS011;9295;44.484;11.240;2023-04-15T06:57:02;2.20;;;1.13;;
18338;SDS011;9295;44.484;11.240;2023-04-15T06:59:32;2.77;;;1.23;;
18338;SDS011;9295;44.484;11.240;2023-04-15T07:02:03;5.13;;;1.30;;
18338;SDS011;9295;44.484;11.240;2023-04-15T07:04:33;6.80;;;2.17;;
18338;SDS011;9295;44.484;11.240;2023-04-15T07:07:03;7.57;;;3.20;;
18338;SDS011;9295;44.484;11.240;2023-04-15T07:09:32;5.60;;;2.47;;
18338;SDS011;9295;44.484;11.240;2023-04-15T07:12:02;5.97;;;2.83;;
18338;SDS011;9295;44.484;11.240;2023-04-15T07:14:32;6.13;;;2.23;;
18338;SDS011;9295;44.484;11.240;2023-04-15T07:17:01;8.00;;;2.57;;
18338;SDS011;9295;44.484;11.240;2023-04-15T07:19:33;7.07;;;2.37;;
18338;SDS011;9295;44.484;11.240;2023-04-15T07:22:03;6.77;;;2.23;;
18338;SDS011;9295;44.484;11.240;2023-04-15T07:24:34;5.83;;;1.73;;
18338;SDS011;9295;44.484;11.240;2023-04-15T07:27:04;2.90;;;1.53;;
18338;SDS011;9295;44.484;11.240;2023-04-15T07:29:33;2.90;;;1.50;;
18338;SDS011;9295;44.484;11.240;2023-04-15T07:32:04;3.20;;;1.20;;
18338;SDS011;9295;44.484;11.240;2023-04-15T07:34:34;4.57;;;1.70;;
18338;SDS011;9295;44.484;11.240;2023-04-15T07:37:04;3.80;;;1.47;;
18338;SDS011;9295;44.484;11.240;2023-04-15T07:39:34;3.90;;;1.50;;
18338;SDS011;9295;44.484;11.240;2023-04-15T07:42:03;7.20;;;1.70;;
18338;SDS011;9295;44.484;11.240;2023-04-15T07:44:33;4.67;;;2.10;;
18338;SDS011;9295;44.484;11.240;2023-04-15T07:47:04;7.07;;;2.63;;
18338;SDS011;9295;44.484;11.240;2023-04-15T07:49:34;12.47;;;5.20;;
18338;SDS011;9295;44.484;11.240;2023-04-15T07:52:03;7.20;;;4.70;;
18338;SDS011;9295;44.484;11.240;2023-04-15T07:54:33;9.70;;;4.33;;
18338;SDS011;9295;44.484;11.240;2023-04-15T07:57:02;10.03;;;4.27;;
18338;SDS011;9295;44.484;11.240;2023-04-15T07:59:32;7.27;;;3.07;;
18338;SDS011;9295;44.484;11.240;2023-04-15T08:02:02;6.40;;;2.50;;
18338;SDS011;9295;44.484;11.240;2023-04-15T08:04:33;6.73;;;2.43;;
18338;SDS011;9295;44.484;11.240;2023-04-15T08:07:03;8.03;;;3.03;;
18338;SDS011;9295;44.484;11.240;2023-04-15T08:09:33;6.57;;;2.40;;
18338;SDS011;9295;44.484;11.240;2023-04-15T08:12:02;7.50;;;3.17;;
18338;SDS011;9295;44.484;11.240;2023-04-15T08:14:33;10.20;;;2.67;;
18338;SDS011;9295;44.484;11.240;2023-04-15T08:17:03;7.17;;;2.47;;
18338;SDS011;9295;44.484;11.240;2023-04-15T08:19:34;5.90;;;2.50;;
18338;SDS011;9295;44.484;11.240;2023-04-15T08:22:04;7.10;;;3.00;;
18338;SDS011;9295;44.484;11.240;2023-04-15T08:24:42;6.80;;;3.20;;
18338;SDS011;9295;44.484;11.240;2023-04-15T08:27:12;6.07;;;2.70;;
18338;SDS011;9295;44.484;11.240;2023-04-15T08:29:42;5.70;;;2.47;;
18338;SDS011;9295;44.484;11.240;2023-04-15T08:32:12;6.23;;;2.83;;
18338;SDS011;9295;44.484;11.240;2023-04-15T08:34:43;9.30;;;3.23;;
18338;SDS011;9295;44.484;11.240;2023-04-15T08:37:13;5.80;;;2.53;;
18338;SDS011;9295;44.484;11.240;2023-04-15T08:39:43;5.03;;;2.70;;
18338;SDS011;9295;44.484;11.240;2023-04-15T08:42:15;7.07;;;2.90;;
18338;SDS011;9295;44.484;11.240;2023-04-15T08:44:45;11.37;;;2.70;;
18338;SDS011;9295;44.484;11.240;2023-04-15T08:47:16;5.70;;;2.80;;
18338;SDS011;9295;44.484;11.240;2023-04-15T08:49:50;5.40;;;2.90;;
18338;SDS011;9295;44.484;11.240;2023-04-15T08:52:23;6.60;;;2.93;;
18338;SDS011;9295;44.484;11.240;2023-04-15T08:54:54;4.50;;;2.40;;
18338;SDS011;9295;44.484;11.240;2023-04-15T08:57:25;4.33;;;2.60;;
18338;SDS011;9295;44.484;11.240;2023-04-15T08:59:56;6.07;;;2.20;;
18338;SDS011;9295;44.484;11.240;2023-04-15T09:02:26;10.93;;;2.80;;
18338;SDS011;9295;44.484;11.240;2023-04-15T09:04:57;5.80;;;2.87;;
18338;SDS011;9295;44.484;11.240;2023-04-15T09:07:26;9.13;;;2.70;;
18338;SDS011;9295;44.484;11.240;2023-04-15T09:09:56;5.53;;;2.50;;
18338;SDS011;9295;44.484;11.240;2023-04-15T09:12:26;8.13;;;3.27;;
18338;SDS011;9295;44.484;11.240;2023-04-15T09:14:55;8.17;;;2.87;;
18338;SDS011;9295;44.484;11.240;2023-04-15T09:17:25;4.50;;;2.53;;
18338;SDS011;9295;44.484;11.240;2023-04-15T09:20:08;4.07;;;2.50;;
18338;SDS011;9295;44.484;11.240;2023-04-15T09:22:40;12.10;;;2.83;;
18338;SDS011;9295;44.484;11.240;2023-04-15T09:25:26;8.40;;;2.80;;
18338;SDS011;9295;44.484;11.240;2023-04-15T09:27:58;5.40;;;2.40;;
18338;SDS011;9295;44.484;11.240;2023-04-15T09:30:28;7.03;;;2.20;;
18338;SDS011;9295;44.484;11.240;2023-04-15T09:32:59;6.00;;;2.40;;
18338;SDS011;9295;44.484;11.240;2023-04-15T09:35:30;7.27;;;2.50;;
18338;SDS011;9295;44.484;11.240;2023-04-15T09:38:01;4.47;;;2.33;;
18338;SDS011;9295;44.484;11.240;2023-04-15T09:40:32;5.07;;;2.50;;
18338;SDS011;9295;44.484;11.240;2023-04-15T09:43:04;5.00;;;2.67;;
18338;SDS011;9295;44.484;11.240;2023-04-15T09:45:35;6.57;;;2.70;;
18338;SDS011;9295;44.484;11.240;2023-04-15T09:48:14;7.67;;;3.00;;
18338;SDS011;9295;44.484;11.240;2023-04-15T09:50:49;8.67;;;2.53;;
18338;SDS011;9295;44.484;11.240;2023-04-15T09:53:21;6.40;;;2.63;;
18338;SDS011;9295;44.484;11.240;2023-04-15T09:55:51;5.23;;;2.73;;
18338;SDS011;9295;44.484;11.240;2023-04-15T09:58:23;8.93;;;3.17;;
18338;SDS011;9295;44.484;11.240;2023-04-15T10:00:55;10.53;;;3.00;;
18338;SDS011;9295;44.484;11.240;2023-04-15T10:03:26;6.63;;;2.43;;
18338;SDS011;9295;44.484;11.240;2023-04-15T10:05:59;4.47;;;2.27;;
18338;SDS011;9295;44.484;11.240;2023-04-15T10:08:30;5.53;;;2.80;;
18338;SDS011;9295;44.484;11.240;2023-04-15T10:11:01;7.87;;;2.40;;
18338;SDS011;9295;44.484;11.240;2023-04-15T10:13:32;4.53;;;2.67;;
18338;SDS011;9295;44.484;11.240;2023-04-15T10:16:05;8.40;;;3.23;;
18338;SDS011;9295;44.484;11.240;2023-04-15T10:18:39;6.57;;;2.90;;
18338;SDS011;9295;44.484;11.240;2023-04-15T10:21:12;5.73;;;2.87;;
18338;SDS011;9295;44.484;11.240;2023-04-15T10:23:45;7.20;;;2.60;;
18338;SDS011;9295;44.484;11.240;2023-04-15T10:26:15;5.67;;;2.80;;
18338;SDS011;9295;44.484;11.240;2023-04-15T10:28:45;4.40;;;2.37;;
18338;SDS011;9295;44.484;11.240;2023-04-15T10:31:15;6.70;;;2.43;;
18338;SDS011;9295;44.484;11.240;2023-04-15T10:33:46;6.17;;;3.17;;
18338;SDS011;9295;44.484;11.240;2023-04-15T10:36:19;5.17;;;2.60;;
18338;SDS011;9295;44.484;11.240;2023-04-15T10:38:49;7.97;;;2.83;;
18338;SDS011;9295;44.484;11.240;2023-04-15T10:41:19;7.90;;;2.80;;
18338;SDS011;9295;44.484;11.240;2023-04-15T10:43:51;5.10;;;2.90;;
18338;SDS011;9295;44.484;11.240;2023-04-15T10:46:22;7.80;;;2.90;;
18338;SDS011;9295;44.484;11.240;2023-04-15T10:48:53;7.07;;;3.00;;
18338;SDS011;9295;44.484;11.240;2023-04-15T10:51:27;8.73;;;3.20;;
18338;SDS011;9295;44.484;11.240;2023-04-15T10:53:58;8.93;;;3.40;;
18338;SDS011;9295;44.484;11.240;2023-04-15T10:56:28;6.70;;;2.80;;
18338;SDS011;9295;44.484;11.240;2023-04-15T10:58:58;5.97;;;2.77;;
18338;SDS011;9295;44.484;11.240;2023-04-15T11:07:37;7.27;;;2.67;;
18338;SDS011;9295;44.484;11.240;2023-04-15T11:13:19;11.93;;;3.03;;
18338;SDS011;9295;44.484;11.240;2023-04-15T11:15:54;6.50;;;2.70;;
18338;SDS011;9295;44.484;11.240;2023-04-15T11:18:26;6.97;;;3.00;;
18338;SDS011;9295;44.484;11.240;2023-04-15T11:21:01;8.70;;;2.77;;
18338;SDS011;9295;44.484;11.240;2023-04-15T11:23:48;9.73;;;2.67;;
18338;SDS011;9295;44.484;11.240;2023-04-15T11:26:18;5.80;;;2.30;;
18338;SDS011;9295;44.484;11.240;2023-04-15T11:28:54;6.40;;;2.40;;
18338;SDS011;9295;44.484;11.240;2023-04-15T11:31:25;5.20;;;2.10;;
18338;SDS011;9295;44.484;11.240;2023-04-15T11:33:57;6.10;;;2.50;;
18338;SDS011;9295;44.484;11.240;2023-04-15T11:36:29;6.30;;;2.17;;
18338;SDS011;9295;44.484;11.240;2023-04-15T11:39:01;5.50;;;2.40;;
18338;SDS011;9295;44.484;11.240;2023-04-15T11:41:31;7.80;;;2.60;;
18338;SDS011;9295;44.484;11.240;2023-04-15T11:44:02;7.63;;;2.60;;
18338;SDS011;9295;44.484;11.240;2023-04-15T11:46:43;8.70;;;2.90;;
18338;SDS011;9295;44.484;11.240;2023-04-15T11:49:24;10.50;;;2.87;;
18338;SDS011;9295;44.484;11.240;2023-04-15T11:51:53;10.03;;;3.00;;
18338;SDS011;9295;44.484;11.240;2023-04-15T11:54:23;9.80;;;2.40;;
18338;SDS011;9295;44.484;11.240;2023-04-15T11:56:51;10.73;;;2.60;;
18338;SDS011;9295;44.484;11.240;2023-04-15T11:59:20;7.37;;;2.63;;
18338;SDS011;9295;44.484;11.240;2023-04-15T12:01:51;7.93;;;2.93;;
18338;SDS011;9295;44.484;11.240;2023-04-15T12:04:20;6.10;;;2.30;;
18338;SDS011;9295;44.484;11.240;2023-04-15T12:06:51;6.27;;;2.40;;
18338;SDS011;9295;44.484;11.240;2023-04-15T12:09:20;6.17;;;2.30;;
18338;SDS011;9295;44.484;11.240;2023-04-15T12:11:50;5.10;;;2.20;;
18338;SDS011;9295;44.484;11.240;2023-04-15T12:14:20;10.00;;;2.80;;
18338;SDS011;9295;44.484;11.240;2023-04-15T12:16:52;7.97;;;2.47;;
18338;SDS011;9295;44.484;11.240;2023-04-15T12:19:24;6.67;;;2.50;;
18338;SDS011;9295;44.484;11.240;2023-04-15T12:21:56;5.30;;;2.30;;
18338;SDS011;9295;44.484;11.240;2023-04-15T12:24:27;14.20;;;3.30;;
18338;SDS011;9295;44.484;11.240;2023-04-15T12:27:02;6.57;;;2.67;;
18338;SDS011;9295;44.484;11.240;2023-04-15T12:29:32;4.97;;;2.20;;
18338;SDS011;9295;44.484;11.240;2023-04-15T12:32:05;7.77;;;2.50;;
18338;SDS011;9295;44.484;11.240;2023-04-15T12:34:35;12.07;;;2.73;;
18338;SDS011;9295;44.484;11.240;2023-04-15T12:37:05;8.83;;;2.50;;
18338;SDS011;9295;44.484;11.240;2023-04-15T12:39:36;5.90;;;2.37;;
18338;SDS011;9295;44.484;11.240;2023-04-15T12:42:07;6.40;;;2.70;;
18338;SDS011;9295;44.484;11.240;2023-04-15T12:44:37;6.50;;;2.33;;
18338;SDS011;9295;44.484;11.240;2023-04-15T12:47:06;9.57;;;2.30;;
18338;SDS011;9295;44.484;11.240;2023-04-15T12:49:35;8.70;;;2.60;;
18338;SDS011;9295;44.484;11.240;2023-04-15T12:52:05;6.20;;;2.60;;
18338;SDS011;9295;44.484;11.240;2023-04-15T12:54:33;7.53;;;2.93;;
18338;SDS011;9295;44.484;11.240;2023-04-15T12:57:02;11.03;;;3.67;;
18338;SDS011;9295;44.484;11.240;2023-04-15T12:59:34;10.37;;;2.90;;
18338;SDS011;9295;44.484;11.240;2023-04-15T13:02:03;5.80;;;2.70;;
18338;SDS011;9295;44.484;11.240;2023-04-15T13:04:31;4.30;;;2.10;;
18338;SDS011;9295;44.484;11.240;2023-04-15T13:07:00;7.30;;;2.80;;
18338;SDS011;9295;44.484;11.240;2023-04-15T13:09:29;8.50;;;1.93;;
18338;SDS011;9295;44.484;11.240;2023-04-15T13:11:57;7.50;;;2.50;;
18338;SDS011;9295;44.484;11.240;2023-04-15T13:14:26;7.13;;;2.27;;
18338;SDS011;9295;44.484;11.240;2023-04-15T13:16:56;6.87;;;2.73;;
18338;SDS011;9295;44.484;11.240;2023-04-15T13:19:24;8.33;;;2.67;;
18338;SDS011;9295;44.484;11.240;2023-04-15T13:21:52;5.73;;;2.07;;
18338;SDS011;9295;44.484;11.240;2023-04-15T13:24:21;9.17;;;3.00;;
18338;SDS011;9295;44.484;11.240;2023-04-15T13:26:49;7.60;;;3.00;;
18338;SDS011;9295;44.484;11.240;2023-04-15T13:29:19;9.50;;;2.73;;
18338;SDS011;9295;44.484;11.240;2023-04-15T13:31:47;8.50;;;2.43;;
18338;SDS011;9295;44.484;11.240;2023-04-15T13:34:17;8.63;;;2.67;;
18338;SDS011;9295;44.484;11.240;2023-04-15T13:36:45;5.73;;;2.47;;
18338;SDS011;9295;44.484;11.240;2023-04-15T13:39:14;5.70;;;2.30;;
18338;SDS011;9295;44.484;11.240;2023-04-15T13:41:42;6.87;;;2.43;;
18338;SDS011;9295;44.484;11.240;2023-04-15T13:44:11;6.80;;;2.53;;
18338;SDS011;9295;44.484;11.240;2023-04-15T13:46:40;12.67;;;3.00;;
18338;SDS011;9295;44.484;11.240;2023-04-15T13:49:08;8.30;;;3.00;;
18338;SDS011;9295;44.484;11.240;2023-04-15T13:51:38;7.70;;;2.57;;
18338;SDS011;9295;44.484;11.240;2023-04-15T13:54:07;10.00;;;2.57;;
18338;SDS011;9295;44.484;11.240;2023-04-15T13:56:35;5.97;;;2.20;;
18338;SDS011;9295;44.484;11.240;2023-04-15T13:59:04;6.97;;;2.10;;
18338;SDS011;9295;44.484;11.240;2023-04-15T14:01:34;7.20;;;2.37;;
18338;SDS011;9295;44.484;11.240;2023-04-15T14:04:02;5.97;;;2.10;;
18338;SDS011;9295;44.484;11.240;2023-04-15T14:06:32;7.60;;;2.43;;
18338;SDS011;9295;44.484;11.240;2023-04-15T14:09:02;7.17;;;2.60;;
18338;SDS011;9295;44.484;11.240;2023-04-15T14:11:30;9.03;;;2.47;;
18338;SDS011;9295;44.484;11.240;2023-04-15T14:14:01;15.10;;;2.27;;
18338;SDS011;9295;44.484;11.240;2023-04-15T14:16:31;12.97;;;3.23;;
18338;SDS011;9295;44.484;11.240;2023-04-15T14:19:00;10.03;;;2.53;;
18338;SDS011;9295;44.484;11.240;2023-04-15T14:21:29;6.90;;;2.43;;
18338;SDS011;9295;44.484;11.240;2023-04-15T14:23:59;9.00;;;2.40;;
18338;SDS011;9295;44.484;11.240;2023-04-15T14:26:28;8.10;;;2.63;;
18338;SDS011;9295;44.484;11.240;2023-04-15T14:28:57;8.00;;;2.20;;
18338;SDS011;9295;44.484;11.240;2023-04-15T14:31:25;8.33;;;2.60;;
18338;SDS011;9295;44.484;11.240;2023-04-15T14:33:54;8.80;;;2.30;;
18338;SDS011;9295;44.484;11.240;2023-04-15T14:36:22;7.00;;;2.20;;
18338;SDS011;9295;44.484;11.240;2023-04-15T14:38:50;5.10;;;2.30;;
18338;SDS011;9295;44.484;11.240;2023-04-15T14:41:19;5.50;;;2.20;;
18338;SDS011;9295;44.484;11.240;2023-04-15T14:43:49;6.80;;;2.10;;
18338;SDS011;9295;44.484;11.240;2023-04-15T14:46:17;6.93;;;2.13;;
18338;SDS011;9295;44.484;11.240;2023-04-15T14:48:46;8.30;;;2.13;;
18338;SDS011;9295;44.484;11.240;2023-04-15T14:51:14;10.10;;;2.43;;
18338;SDS011;9295;44.484;11.240;2023-04-15T14:53:42;6.60;;;2.20;;
18338;SDS011;9295;44.484;11.240;2023-04-15T14:56:12;8.17;;;2.20;;
18338;SDS011;9295;44.484;11.240;2023-04-15T14:58:40;7.30;;;2.87;;
18338;SDS011;9295;44.484;11.240;2023-04-15T15:01:10;9.03;;;1.90;;
18338;SDS011;9295;44.484;11.240;2023-04-15T15:03:39;5.30;;;2.00;;
18338;SDS011;9295;44.484;11.240;2023-04-15T15:06:07;13.83;;;2.07;;
18338;SDS011;9295;44.484;11.240;2023-04-15T15:08:36;20.07;;;2.47;;
18338;SDS011;9295;44.484;11.240;2023-04-15T15:11:05;6.47;;;1.97;;
18338;SDS011;9295;44.484;11.240;2023-04-15T15:13:35;5.03;;;2.13;;